createdAt,value
2022-12-23T00:01:24.428Z,99463.36
2022-12-23T00:03:51.316Z,99456.82
2022-12-23T00:06:19.666Z,99447.31
2022-12-23T00:08:46.839Z,99450.61
2022-12-23T00:11:19.302Z,99444.56
2022-12-23T00:14:05.028Z,99443.29
2022-12-23T00:16:31.567Z,99439.11
2022-12-23T00:18:57.999Z,99440.84
2022-12-23T00:21:24.476Z,99440.64
2022-12-23T00:23:51.639Z,99442.52
2022-12-23T00:26:23.972Z,99440.87
2022-12-23T00:28:51.135Z,99442.75
2022-12-23T00:31:18.992Z,99435.58
2022-12-23T00:33:47.616Z,99435.47
2022-12-23T00:36:24.524Z,99438.59
2022-12-23T00:39:09.772Z,99438.62
2022-12-23T00:41:54.816Z,99443.17
2022-12-23T00:44:21.431Z,99442.14
2022-12-23T00:46:48.092Z,99441.34
2022-12-23T00:49:36.648Z,99438.08
2022-12-23T00:52:04.726Z,99435.91
2022-12-23T00:54:31.964Z,99432.77
2022-12-23T00:56:59.025Z,99427.11
2022-12-23T00:59:25.557Z,99426.27
2022-12-23T01:02:10.817Z,99426.39
2022-12-23T01:04:56.111Z,99422.65
2022-12-23T01:07:23.594Z,99423.71
2022-12-23T01:09:50.024Z,99420.02
2022-12-23T01:12:16.455Z,99421.64
2022-12-23T01:14:42.866Z,99425.23
2022-12-23T01:17:09.569Z,99430.88
2022-12-23T01:19:36.118Z,99431.35
2022-12-23T01:22:03.038Z,99429.70
2022-12-23T01:24:33.015Z,99435.76
2022-12-23T01:27:00.464Z,99434.94
2022-12-23T01:29:27.017Z,99438.75
2022-12-23T01:31:53.544Z,99439.04
2022-12-23T01:34:20.070Z,99441.56
2022-12-23T01:36:46.489Z,99441.70
2022-12-23T01:39:12.997Z,99441.68
2022-12-23T01:41:57.820Z,99440.02
2022-12-23T01:44:49.035Z,99444.66
2022-12-23T01:47:21.429Z,99442.95
2022-12-23T01:49:50.595Z,99444.92
2022-12-23T01:52:17.250Z,99444.04
2022-12-23T01:54:44.414Z,99445.94
2022-12-23T01:57:11.089Z,99447.34
2022-12-23T01:59:55.894Z,99450.95
2022-12-23T02:02:40.862Z,99453.29
2022-12-23T02:05:08.359Z,99449.21
2022-12-23T02:07:54.581Z,99444.73
2022-12-23T02:10:26.236Z,99448.64
2022-12-23T02:13:07.343Z,99448.27
2022-12-23T02:16:17.631Z,99448.27
2022-12-23T02:19:00.482Z,99456.45
2022-12-23T02:22:11.181Z,99462.45
2022-12-23T02:25:01.744Z,99469.05
2022-12-23T02:27:44.285Z,99471.54
2022-12-23T02:30:55.271Z,99473.38
2022-12-23T02:33:36.233Z,99471.25
2022-12-23T02:36:38.403Z,99472.98
2022-12-23T02:39:19.236Z,99474.77
2022-12-23T02:41:57.317Z,99478.52
2022-12-23T02:44:33.309Z,99480.19
2022-12-23T02:47:05.743Z,99479.16
2022-12-23T02:49:43.770Z,99480.83
2022-12-23T02:52:15.856Z,99481.95
2022-12-23T02:54:48.566Z,99484.48
2022-12-23T02:57:20.007Z,99482.98
2022-12-23T02:59:50.972Z,99481.10
2022-12-23T03:02:18.029Z,99478.02
2022-12-23T03:04:44.641Z,99483.46
2022-12-23T03:07:30.075Z,99486.91
2022-12-23T03:10:13.395Z,99482.46
2022-12-23T03:13:03.945Z,99481.77
2022-12-23T03:15:37.209Z,99488.05
2022-12-23T03:18:46.797Z,99488.48
2022-12-23T03:21:22.310Z,99485.52
2022-12-23T03:24:08.218Z,99483.05
2022-12-23T03:26:40.683Z,99485.83
2022-12-23T03:29:18.576Z,99491.08
2022-12-23T03:31:46.303Z,99490.16
2022-12-23T03:34:16.393Z,99487.13
2022-12-23T03:36:53.091Z,99480.55
2022-12-23T03:39:23.060Z,99482.20
2022-12-23T03:42:00.204Z,99481.29
2022-12-23T03:44:30.480Z,99483.59
2022-12-23T03:47:05.309Z,99488.44
2022-12-23T03:49:37.525Z,99491.61
2022-12-23T03:52:18.905Z,99494.30
2022-12-23T03:54:53.550Z,99494.09
2022-12-23T03:57:28.230Z,99495.71
2022-12-23T03:59:54.905Z,99505.36
2022-12-23T04:03:00.045Z,99513.73
2022-12-23T04:05:29.828Z,99516.89
2022-12-23T04:08:06.920Z,99521.46
2022-12-23T04:10:34.643Z,99517.05
2022-12-23T04:13:02.126Z,99517.29
2022-12-23T04:15:29.077Z,99519.06
2022-12-23T04:17:57.672Z,99521.11
2022-12-23T04:20:24.765Z,99523.29
2022-12-23T04:22:51.244Z,99529.44
2022-12-23T04:25:18.151Z,99529.17
2022-12-23T04:27:44.587Z,99529.16
2022-12-23T04:30:13.578Z,99533.36
2022-12-23T04:32:41.583Z,99531.36
2022-12-23T04:35:08.714Z,99533.07
2022-12-23T04:37:35.190Z,99534.44
2022-12-23T04:40:01.786Z,99532.20
2022-12-23T04:42:28.234Z,99537.70
2022-12-23T04:44:54.604Z,99534.72
2022-12-23T04:47:21.021Z,99541.34
2022-12-23T04:49:47.397Z,99541.44
2022-12-23T04:52:13.833Z,99544.71
2022-12-23T04:54:45.796Z,99546.75
2022-12-23T04:57:12.842Z,99549.98
2022-12-23T04:59:39.247Z,99549.94
2022-12-23T05:02:05.779Z,99556.73
2022-12-23T05:04:32.777Z,99557.20
2022-12-23T05:06:59.213Z,99562.23
2022-12-23T05:09:25.627Z,99559.41
2022-12-23T05:11:51.995Z,99568.35
2022-12-23T05:14:18.355Z,99575.92
2022-12-23T05:16:44.904Z,99568.20
2022-12-23T05:19:11.605Z,99566.73
2022-12-23T05:21:38.057Z,99575.52
2022-12-23T05:24:04.552Z,99579.14
2022-12-23T05:26:30.957Z,99580.73
2022-12-23T05:28:57.329Z,99589.09
2022-12-23T05:31:23.824Z,99593.92
2022-12-23T05:33:50.411Z,99597.35
2022-12-23T05:36:16.879Z,99594.11
2022-12-23T05:38:43.251Z,99596.80
2022-12-23T05:41:09.732Z,99603.98
2022-12-23T05:43:36.161Z,99607.39
2022-12-23T05:46:02.719Z,99608.32
2022-12-23T05:48:29.284Z,99613.70
2022-12-23T05:50:55.708Z,99619.49
2022-12-23T05:53:22.111Z,99619.25
2022-12-23T05:55:48.611Z,99619.73
2022-12-23T05:58:16.033Z,99619.90
2022-12-23T06:00:42.793Z,99616.80
2022-12-23T06:03:09.341Z,99618.11
2022-12-23T06:05:37.690Z,99630.77
2022-12-23T06:08:04.409Z,99635.28
2022-12-23T06:10:30.851Z,99639.90
2022-12-23T06:12:57.213Z,99645.60
2022-12-23T06:15:23.609Z,99642.90
2022-12-23T06:17:49.976Z,99640.38
2022-12-23T06:20:20.677Z,99647.03
2022-12-23T06:22:48.081Z,99653.42
2022-12-23T06:25:14.523Z,99654.01
2022-12-23T06:27:40.951Z,99652.67
2022-12-23T06:30:08.099Z,99657.45
2022-12-23T06:32:38.308Z,99661.33
2022-12-23T06:35:06.447Z,99663.14
2022-12-23T06:37:32.867Z,99663.83
2022-12-23T06:39:59.342Z,99664.29
2022-12-23T06:42:25.769Z,99666.35
2022-12-23T06:44:52.163Z,99671.23
2022-12-23T06:47:18.562Z,99674.46
2022-12-23T06:49:44.996Z,99679.41
2022-12-23T06:52:11.368Z,99685.09
2022-12-23T06:54:37.930Z,99692.91
2022-12-23T06:57:04.783Z,99697.23
2022-12-23T06:59:31.555Z,99701.86
2022-12-23T07:01:58.161Z,99706.68
2022-12-23T07:04:24.754Z,99709.77
2022-12-23T07:06:51.171Z,99713.69
2022-12-23T07:09:17.643Z,99717.16
2022-12-23T07:11:44.073Z,99726.05
2022-12-23T07:14:10.507Z,99727.98
2022-12-23T07:16:37.066Z,99723.14
2022-12-23T07:19:03.534Z,99724.64
2022-12-23T07:21:30.350Z,99728.77
2022-12-23T07:23:56.955Z,99731.14
2022-12-23T07:26:23.400Z,99728.95
2022-12-23T07:28:49.769Z,99735.44
2022-12-23T07:31:16.420Z,99737.10
2022-12-23T07:33:43.244Z,99735.92
2022-12-23T07:36:09.977Z,99737.39
2022-12-23T07:38:36.401Z,99739.84
2022-12-23T07:41:02.815Z,99744.16
2022-12-23T07:43:29.250Z,99749.91
2022-12-23T07:45:59.856Z,99751.85
2022-12-23T07:48:27.339Z,99755.52
2022-12-23T07:50:53.763Z,99757.08
2022-12-23T07:53:20.228Z,99756.00
2022-12-23T07:55:50.126Z,99760.52
2022-12-23T07:58:19.491Z,99760.92
2022-12-23T08:00:45.850Z,99769.25
2022-12-23T08:03:12.690Z,99772.58
2022-12-23T08:05:39.176Z,99766.73
2022-12-23T08:08:05.576Z,99770.27
2022-12-23T08:10:32.019Z,99765.20
2022-12-23T08:13:01.555Z,99768.06
2022-12-23T08:15:28.006Z,99778.23
2022-12-23T08:17:56.238Z,99777.69
2022-12-23T08:20:22.584Z,99780.20
2022-12-23T08:22:49.046Z,99786.63
2022-12-23T08:25:15.433Z,99788.84
2022-12-23T08:27:41.807Z,99788.20
2022-12-23T08:30:09.031Z,99785.17
2022-12-23T08:32:35.521Z,99793.23
2022-12-23T08:35:01.945Z,99799.77
2022-12-23T08:37:28.661Z,99805.24
2022-12-23T08:39:55.049Z,99803.91
2022-12-23T08:42:21.455Z,99808.30
2022-12-23T08:44:47.858Z,99803.35
2022-12-23T08:47:14.300Z,99807.02
2022-12-23T08:49:40.766Z,99808.42
2022-12-23T08:52:07.235Z,99815.91
2022-12-23T08:54:33.761Z,99814.87
2022-12-23T08:57:00.141Z,99823.29
2022-12-23T08:59:26.525Z,99821.51
2022-12-23T09:01:53.140Z,99828.42
2022-12-23T09:04:19.623Z,99836.44
2022-12-23T09:06:46.123Z,99834.41
2022-12-23T09:09:15.246Z,99836.73
2022-12-23T09:11:42.353Z,99837.90
2022-12-23T09:14:10.108Z,99836.29
2022-12-23T09:16:36.980Z,99827.34
2022-12-23T09:19:03.865Z,99823.34
2022-12-23T09:21:30.365Z,99830.88
2022-12-23T09:23:56.743Z,99839.04
2022-12-23T09:26:26.643Z,99834.23
2022-12-23T09:28:53.775Z,99824.23
2022-12-23T09:31:20.942Z,99820.46
2022-12-23T09:33:50.537Z,99814.61
2022-12-23T09:36:17.694Z,99812.83
2022-12-23T09:38:44.823Z,99819.83
2022-12-23T09:41:20.153Z,99824.05
2022-12-23T09:43:55.700Z,99825.52
2022-12-23T09:46:25.356Z,99829.39
2022-12-23T09:49:13.658Z,99836.76
2022-12-23T09:51:40.235Z,99839.81
2022-12-23T09:54:26.508Z,99850.13
2022-12-23T09:56:57.611Z,99843.45
2022-12-23T09:59:51.087Z,99842.21
2022-12-23T10:02:29.564Z,99845.95
2022-12-23T10:05:14.392Z,99837.57
2022-12-23T10:07:53.182Z,99844.65
2022-12-23T10:10:44.575Z,99847.86
2022-12-23T10:13:56.069Z,99848.76
2022-12-23T10:16:55.264Z,99845.05
2022-12-23T10:19:43.071Z,99839.11
2022-12-23T10:22:16.584Z,99831.83
2022-12-23T10:24:46.253Z,99827.84
2022-12-23T10:27:26.212Z,99834.11
2022-12-23T10:29:52.561Z,99838.05
2022-12-23T10:32:50.488Z,99843.81
2022-12-23T10:35:25.977Z,99844.02
2022-12-23T10:38:03.003Z,99849.09
2022-12-23T10:40:54.311Z,99850.28
2022-12-23T10:43:39.063Z,99849.02
2022-12-23T10:46:27.140Z,99842.30
2022-12-23T10:49:20.664Z,99839.71
2022-12-23T10:52:02.040Z,99837.86
2022-12-23T10:54:34.039Z,99836.73
2022-12-23T10:57:01.616Z,99830.15
2022-12-23T10:59:31.130Z,99824.08
2022-12-23T11:02:13.660Z,99819.27
2022-12-23T11:04:43.424Z,99818.02
2022-12-23T11:10:07.442Z,99806.36
2022-12-23T11:12:43.667Z,99808.47
2022-12-23T11:15:40.776Z,99807.27
2022-12-23T11:18:07.810Z,99807.48
2022-12-23T11:20:36.884Z,99806.19
2022-12-23T11:23:06.359Z,99811.68
2022-12-23T11:25:40.852Z,99814.52
2022-12-23T11:28:10.581Z,99812.66
2022-12-23T11:30:56.217Z,99810.66
2022-12-23T11:33:32.379Z,99809.73
2022-12-23T11:36:13.017Z,99815.27
2022-12-23T11:39:01.391Z,99816.17
2022-12-23T11:41:30.166Z,99811.61
2022-12-23T11:44:01.310Z,99812.35
2022-12-23T11:46:30.828Z,99806.10
2022-12-23T11:49:18.287Z,99805.58
2022-12-23T11:52:00.346Z,99804.52
2022-12-23T11:54:27.129Z,99801.08
2022-12-23T11:56:55.029Z,99798.36
2022-12-23T11:59:32.505Z,99798.39
2022-12-23T12:02:01.930Z,99797.67
2022-12-23T12:04:33.199Z,99793.79
2022-12-23T12:07:00.911Z,99789.90
2022-12-23T12:09:30.982Z,99787.80
2022-12-23T12:12:04.604Z,99784.60
2022-12-23T12:14:42.392Z,99780.91
2022-12-23T12:17:24.493Z,99770.53
2022-12-23T12:20:12.243Z,99768.62
2022-12-23T12:22:48.564Z,99757.63
2022-12-23T12:25:42.148Z,99754.58
2022-12-23T12:28:22.394Z,99753.93
2022-12-23T12:31:02.408Z,99742.66
2022-12-23T12:33:41.791Z,99738.56
2022-12-23T12:36:40.661Z,99740.84
2022-12-23T12:39:26.056Z,99733.77
2022-12-23T12:42:05.854Z,99727.32
2022-12-23T12:45:05.263Z,99720.59
2022-12-23T12:47:55.794Z,99716.11
2022-12-23T12:50:29.511Z,99711.64
2022-12-23T12:53:01.954Z,99712.27
2022-12-23T12:55:32.444Z,99709.11
2022-12-23T12:58:02.411Z,99705.77
2022-12-23T13:00:32.823Z,99699.90
2022-12-23T13:03:22.828Z,99693.25
2022-12-23T13:06:15.427Z,99692.46
2022-12-23T13:08:41.788Z,99690.65
2022-12-23T13:11:26.533Z,99686.73
2022-12-23T13:14:09.933Z,99676.21
2022-12-23T13:16:53.513Z,99667.77
2022-12-23T13:19:38.066Z,99673.85
2022-12-23T13:22:15.912Z,99677.03
2022-12-23T13:25:05.468Z,99679.33
2022-12-23T13:27:57.930Z,99678.14
2022-12-23T13:30:30.075Z,99679.92
2022-12-23T13:33:17.311Z,99679.02
2022-12-23T13:36:02.973Z,99683.05
2022-12-23T13:38:49.562Z,99684.59
2022-12-23T13:41:39.922Z,99684.48
2022-12-23T13:44:09.608Z,99680.14
2022-12-23T13:46:51.186Z,99679.58
2022-12-23T13:49:45.697Z,99678.88
2022-12-23T13:52:22.964Z,99670.41
2022-12-23T13:55:14.935Z,99664.78
2022-12-23T13:58:17.925Z,99668.89
2022-12-23T14:00:44.732Z,99675.17
2022-12-23T14:03:19.283Z,99675.59
2022-12-23T14:05:50.453Z,99673.13
2022-12-23T14:08:24.935Z,99660.39
2022-12-23T14:11:01.666Z,99655.44
2022-12-23T14:13:46.365Z,99646.55
2022-12-23T14:16:22.040Z,99648.38
2022-12-23T14:19:00.733Z,99641.98
2022-12-23T14:21:54.700Z,99641.20
2022-12-23T14:24:53.342Z,99637.30
2022-12-23T14:27:30.869Z,99633.46
2022-12-23T14:30:46.081Z,99629.71
2022-12-23T14:33:24.004Z,99622.55
2022-12-23T14:36:24.380Z,99622.36
2022-12-23T14:39:33.891Z,99626.88
2022-12-23T14:42:06.477Z,99625.99
2022-12-23T14:44:37.558Z,99622.27
2022-12-23T14:47:34.002Z,99617.77
2022-12-23T14:50:40.547Z,99617.39
2022-12-23T14:53:23.000Z,99614.52
2022-12-23T14:55:51.436Z,99617.55
2022-12-23T14:58:17.800Z,99618.27
2022-12-23T15:00:50.902Z,99614.41
2022-12-23T15:03:19.997Z,99609.62
2022-12-23T15:05:46.996Z,99606.01
2022-12-23T15:08:36.774Z,99601.41
2022-12-23T15:11:04.287Z,99600.61
2022-12-23T15:13:32.719Z,99598.27
2022-12-23T15:16:01.629Z,99601.52
2022-12-23T15:18:28.866Z,99597.38
2022-12-23T15:21:03.990Z,99590.83
2022-12-23T15:23:30.460Z,99585.68
2022-12-23T15:25:59.750Z,99580.28
2022-12-23T15:28:44.473Z,99578.86
2022-12-23T15:31:33.047Z,99574.59
2022-12-23T15:34:05.337Z,99566.27
2022-12-23T15:36:36.883Z,99563.06
2022-12-23T15:39:09.887Z,99554.73
2022-12-23T15:41:44.684Z,99556.48
2022-12-23T15:44:19.602Z,99550.80
2022-12-23T15:46:46.389Z,99547.59
2022-12-23T15:49:12.956Z,99548.45
2022-12-23T15:54:36.802Z,99543.52
2022-12-23T15:57:04.674Z,99541.04
2022-12-23T15:59:38.739Z,99541.80
2022-12-23T16:02:59.611Z,99544.30
2022-12-23T16:05:35.171Z,99536.77
2022-12-23T16:08:31.493Z,99529.77
2022-12-23T16:11:00.616Z,99526.52
2022-12-23T16:13:27.063Z,99525.32
2022-12-23T16:15:53.638Z,99526.52
2022-12-23T16:18:32.785Z,99527.98
2022-12-23T16:21:02.227Z,99529.08
2022-12-23T16:23:30.757Z,99527.41
2022-12-23T16:26:00.121Z,99527.18
2022-12-23T16:28:29.845Z,99529.20
2022-12-23T16:30:58.300Z,99520.55
2022-12-23T16:33:35.987Z,99511.49
2022-12-23T16:36:38.092Z,99495.76
2022-12-23T16:39:07.538Z,99487.84
2022-12-23T16:41:34.956Z,99480.45
2022-12-23T16:44:02.041Z,99480.33
2022-12-23T16:46:33.962Z,99479.00
2022-12-23T16:49:06.397Z,99479.88
2022-12-23T16:51:34.300Z,99481.96
2022-12-23T16:54:01.499Z,99484.64
2022-12-23T16:56:34.228Z,99483.05
2022-12-23T16:59:00.719Z,99484.36
2022-12-23T17:01:39.565Z,99482.24
2022-12-23T17:04:07.434Z,99478.30
2022-12-23T17:06:35.823Z,99476.17
2022-12-23T17:09:04.356Z,99475.83
2022-12-23T17:11:53.111Z,99474.06
2022-12-23T17:14:24.941Z,99470.54
2022-12-23T17:16:51.965Z,99470.84
2022-12-23T17:19:27.296Z,99464.73
2022-12-23T17:21:59.697Z,99461.19
2022-12-23T17:24:27.188Z,99457.71
2022-12-23T17:26:55.187Z,99454.64
2022-12-23T17:29:22.342Z,99449.86
2022-12-23T17:31:50.181Z,99446.16
2022-12-23T17:34:19.627Z,99447.42
2022-12-23T17:36:49.888Z,99441.86
2022-12-23T17:39:17.378Z,99436.05
2022-12-23T17:41:43.929Z,99435.61
2022-12-23T17:44:14.219Z,99438.04
2022-12-23T17:46:41.172Z,99430.33
2022-12-23T17:49:08.663Z,99425.83
2022-12-23T17:51:35.192Z,99422.11
2022-12-23T17:54:02.133Z,99421.23
2022-12-23T17:56:29.044Z,99418.37
2022-12-23T17:58:55.451Z,99409.05
2022-12-23T18:01:31.574Z,99406.52
2022-12-23T18:03:59.894Z,99407.81
2022-12-23T18:06:28.518Z,99402.52
2022-12-23T18:08:57.077Z,99400.70
2022-12-23T18:11:44.784Z,99398.55
2022-12-23T18:14:17.931Z,99395.43
2022-12-23T18:16:44.463Z,99387.30
2022-12-23T18:19:21.043Z,99383.38
2022-12-23T18:21:47.876Z,99383.14
2022-12-23T18:24:14.248Z,99382.84
2022-12-23T18:26:40.654Z,99378.74
2022-12-23T18:29:07.207Z,99376.18
2022-12-23T18:31:35.857Z,99371.96
2022-12-23T18:34:02.274Z,99369.55
2022-12-23T18:36:32.856Z,99366.60
2022-12-23T18:38:59.787Z,99363.60
2022-12-23T18:41:27.155Z,99365.02
2022-12-23T18:43:53.958Z,99368.71
2022-12-23T18:46:20.834Z,99371.45
2022-12-23T18:48:48.327Z,99370.19
2022-12-23T18:51:16.308Z,99365.86
2022-12-23T18:53:43.597Z,99361.59
2022-12-23T18:56:21.171Z,99356.03
2022-12-23T18:58:48.332Z,99355.90
2022-12-23T19:01:16.608Z,99354.52
2022-12-23T19:03:43.180Z,99352.43
2022-12-23T19:06:12.765Z,99350.64
2022-12-23T19:08:40.138Z,99355.27
2022-12-23T19:11:18.438Z,99356.86
2022-12-23T19:13:45.374Z,99354.91
2022-12-23T19:16:17.728Z,99360.11
2022-12-23T19:18:44.728Z,99363.49
2022-12-23T19:21:11.408Z,99365.41
2022-12-23T19:23:41.522Z,99364.60
2022-12-23T19:26:13.560Z,99365.75
2022-12-23T19:28:44.103Z,99361.14
2022-12-23T19:31:15.686Z,99355.69
2022-12-23T19:33:45.317Z,99349.75
2022-12-23T19:36:14.083Z,99349.15
2022-12-23T19:38:40.611Z,99349.86
2022-12-23T19:41:07.960Z,99344.27
2022-12-23T19:43:35.454Z,99346.05
2022-12-23T19:46:04.472Z,99348.17
2022-12-23T19:48:31.109Z,99342.08
2022-12-23T19:51:03.961Z,99344.46
2022-12-23T19:53:30.857Z,99344.66
2022-12-23T19:55:59.275Z,99354.80
2022-12-23T19:58:26.474Z,99365.64
2022-12-23T20:00:53.325Z,99372.52
2022-12-23T20:03:19.799Z,99377.23
2022-12-23T20:05:52.356Z,99375.77
2022-12-23T20:08:18.742Z,99367.64
2022-12-23T20:10:45.191Z,99370.65
2022-12-23T20:13:11.591Z,99380.13
2022-12-23T20:15:38.058Z,99374.32
2022-12-23T20:18:04.596Z,99370.19
2022-12-23T20:20:31.212Z,99376.91
2022-12-23T20:22:57.731Z,99386.98
2022-12-23T20:25:24.260Z,99387.42
2022-12-23T20:27:50.819Z,99382.98
2022-12-23T20:30:17.242Z,99384.29
2022-12-23T20:32:43.604Z,99388.09
2022-12-23T20:35:10.108Z,99384.21
2022-12-23T20:37:36.512Z,99377.00
2022-12-23T20:40:03.711Z,99376.60
2022-12-23T20:42:30.146Z,99379.35
2022-12-23T20:44:56.553Z,99381.13
2022-12-23T20:47:22.973Z,99382.41
2022-12-23T20:49:49.344Z,99379.52
2022-12-23T20:52:15.764Z,99384.44
2022-12-23T20:54:42.134Z,99388.95
2022-12-23T20:57:08.507Z,99394.76
2022-12-23T20:59:34.945Z,99386.92
2022-12-23T21:02:01.453Z,99381.11
2022-12-23T21:04:28.235Z,99388.30
2022-12-23T21:06:54.662Z,99402.19
2022-12-23T21:09:21.113Z,99409.32
2022-12-23T21:11:47.760Z,99406.31
2022-12-23T21:14:15.364Z,99401.41
2022-12-23T21:16:42.205Z,99403.50
2022-12-23T21:19:14.227Z,99410.98
2022-12-23T21:21:40.720Z,99423.55
2022-12-23T21:24:07.241Z,99422.48
2022-12-23T21:26:34.837Z,99418.52
2022-12-23T21:29:03.984Z,99416.73
2022-12-23T21:31:33.585Z,99421.20
2022-12-23T21:34:00.263Z,99424.05
2022-12-23T21:36:30.862Z,99429.66
2022-12-23T21:38:58.000Z,99433.43
2022-12-23T21:41:30.095Z,99439.74
2022-12-23T21:43:58.663Z,99447.41
2022-12-23T21:46:26.611Z,99443.04
2022-12-23T21:48:55.274Z,99444.45
2022-12-23T21:51:39.664Z,99445.06
2022-12-23T21:54:07.924Z,99458.35
2022-12-23T21:56:34.992Z,99459.73
2022-12-23T21:59:04.080Z,99462.92
2022-12-23T22:01:31.473Z,99470.95
2022-12-23T22:03:58.232Z,99481.13
2022-12-23T22:06:30.810Z,99477.34
2022-12-23T22:08:58.265Z,99469.14
2022-12-23T22:11:27.187Z,99478.39
2022-12-23T22:13:55.483Z,99490.26
2022-12-23T22:16:24.012Z,99487.77
2022-12-23T22:18:51.033Z,99482.09
2022-12-23T22:21:23.141Z,99480.55
2022-12-23T22:23:50.644Z,99487.28
2022-12-23T22:26:24.706Z,99499.89
2022-12-23T22:28:54.378Z,99497.67
2022-12-23T22:31:33.024Z,99502.39
2022-12-23T22:33:59.509Z,99512.97
2022-12-23T22:36:26.200Z,99519.27
2022-12-23T22:38:55.243Z,99519.20
2022-12-23T22:41:21.852Z,99519.81
2022-12-23T22:43:49.091Z,99521.11
2022-12-23T22:46:16.120Z,99521.55
2022-12-23T22:48:42.818Z,99515.13
2022-12-23T22:51:14.832Z,99525.73
2022-12-23T22:53:41.587Z,99530.77
2022-12-23T22:56:10.536Z,99532.28
2022-12-23T22:58:37.186Z,99531.25
2022-12-23T23:01:04.074Z,99536.87
2022-12-23T23:03:30.849Z,99543.59
2022-12-23T23:06:02.259Z,99543.27
2022-12-23T23:08:29.946Z,99541.86
2022-12-23T23:10:58.570Z,99547.52
2022-12-23T23:13:28.515Z,99553.59
2022-12-23T23:15:55.981Z,99548.81
2022-12-23T23:18:23.477Z,99548.86
2022-12-23T23:20:50.281Z,99557.96
2022-12-23T23:23:16.685Z,99562.20
2022-12-23T23:25:43.392Z,99570.06
2022-12-23T23:28:11.688Z,99564.65
2022-12-23T23:30:38.923Z,99563.34
2022-12-23T23:33:06.718Z,99561.02
2022-12-23T23:35:33.358Z,99558.29
2022-12-23T23:37:59.762Z,99563.73
2022-12-23T23:40:27.015Z,99567.84
2022-12-23T23:42:53.651Z,99567.04
2022-12-23T23:45:20.720Z,99568.15
2022-12-23T23:47:47.155Z,99568.56
2022-12-23T23:50:13.631Z,99569.27
2022-12-23T23:52:40.071Z,99578.89
2022-12-23T23:55:07.142Z,99583.59
2022-12-23T23:57:33.738Z,99590.12
